createdAt,value
2022-08-10T00:01:53.296Z,22.94
2022-08-10T00:04:22.547Z,22.80
2022-08-10T00:06:53.447Z,23.15
2022-08-10T00:09:21.505Z,23.31
2022-08-10T00:11:48.845Z,22.99
2022-08-10T00:14:16.271Z,22.79
2022-08-10T00:16:43.935Z,22.59
2022-08-10T00:19:11.358Z,22.90
2022-08-10T00:21:38.757Z,23.08
2022-08-10T00:24:06.552Z,23.08
2022-08-10T00:27:52.062Z,23.20
2022-08-10T00:29:22.356Z,23.03
2022-08-10T00:31:58.259Z,23.00
2022-08-10T00:34:27.969Z,23.32
2022-08-10T00:36:55.725Z,22.86
2022-08-10T00:39:23.170Z,23.00
2022-08-10T00:42:06.841Z,23.21
2022-08-10T00:44:36.689Z,22.91
2022-08-10T00:47:04.744Z,22.72
2022-08-10T00:49:32.173Z,22.64
2022-08-10T00:51:59.541Z,22.43
2022-08-10T00:54:27.180Z,22.21
2022-08-10T00:57:15.843Z,22.66
2022-08-10T00:59:59.159Z,22.73
2022-08-10T01:02:29.240Z,22.24
2022-08-10T01:05:01.909Z,22.12
2022-08-10T01:08:23.708Z,22.29
2022-08-10T01:12:47.587Z,22.45
2022-08-10T01:14:00.905Z,22.06
2022-08-10T01:16:35.189Z,22.22
2022-08-10T01:19:23.872Z,22.14
2022-08-10T01:22:12.881Z,22.45
2022-08-10T01:24:51.328Z,21.95
2022-08-10T01:27:27.637Z,21.99
2022-08-10T01:30:08.858Z,22.07
2022-08-10T01:32:45.950Z,22.37
2022-08-10T01:35:30.553Z,21.17
2022-08-10T01:38:17.222Z,21.75
2022-08-10T01:40:53.886Z,21.81
2022-08-10T01:43:21.791Z,21.72
2022-08-10T01:45:55.312Z,21.83
2022-08-10T01:48:33.323Z,21.95
2022-08-10T01:51:37.470Z,21.52
2022-08-10T01:54:12.994Z,21.60
2022-08-10T01:56:43.213Z,21.59
2022-08-10T01:59:38.051Z,22.20
2022-08-10T02:02:08.145Z,21.89
2022-08-10T02:04:37.669Z,22.13
2022-08-10T02:07:06.201Z,22.09
2022-08-10T02:09:36.460Z,22.15
2022-08-10T02:12:08.606Z,22.00
2022-08-10T02:14:43.066Z,22.39
2022-08-10T02:18:00.113Z,22.07
2022-08-10T02:20:01.977Z,22.11
2022-08-10T02:22:46.004Z,21.92
2022-08-10T02:25:42.001Z,22.30
2022-08-10T02:28:02.307Z,22.46
2022-08-10T02:30:29.672Z,22.87
2022-08-10T02:32:58.228Z,22.92
2022-08-10T02:35:33.456Z,22.28
2022-08-10T02:38:15.651Z,22.11
2022-08-10T02:45:00.913Z,22.47
2022-08-10T02:45:22.069Z,22.39
2022-08-10T02:46:27.950Z,22.77
2022-08-10T02:49:00.870Z,22.94
2022-08-10T02:52:06.451Z,22.89
2022-08-10T02:54:47.502Z,23.07
2022-08-10T02:57:23.077Z,23.14
2022-08-10T02:59:51.736Z,23.03
2022-08-10T03:02:25.804Z,23.26
2022-08-10T03:04:58.078Z,23.15
2022-08-10T03:07:43.559Z,23.32
2022-08-10T03:10:39.774Z,23.09
2022-08-10T03:13:09.657Z,23.27
2022-08-10T03:15:37.669Z,23.28
2022-08-10T03:18:05.565Z,23.45
2022-08-10T03:20:40.536Z,23.16
2022-08-10T03:23:15.512Z,23.29
2022-08-10T03:25:53.578Z,23.54
2022-08-10T03:28:22.970Z,23.39
2022-08-10T03:30:50.877Z,23.09
2022-08-10T03:33:18.233Z,23.37
2022-08-10T03:36:42.310Z,23.21
2022-08-10T03:38:33.890Z,23.00
2022-08-10T03:41:05.430Z,22.90
2022-08-10T03:43:33.973Z,22.81
2022-08-10T03:46:03.223Z,22.76
2022-08-10T03:48:44.703Z,22.82
2022-08-10T03:51:18.932Z,23.05
2022-08-10T03:54:05.093Z,22.90
2022-08-10T03:56:36.082Z,23.19
2022-08-10T03:59:04.195Z,23.13
2022-08-10T04:02:45.055Z,23.05
2022-08-10T04:04:24.192Z,23.19
2022-08-10T04:06:54.532Z,23.21
2022-08-10T04:09:25.168Z,22.96
2022-08-10T04:12:10.961Z,22.95
2022-08-10T04:14:51.537Z,22.76
2022-08-10T04:18:02.706Z,22.53
2022-08-10T04:20:34.676Z,21.77
2022-08-10T04:23:06.601Z,22.23
2022-08-10T04:25:34.285Z,22.43
2022-08-10T04:28:03.189Z,22.73
2022-08-10T04:30:30.772Z,22.43
2022-08-10T04:32:59.601Z,22.56
2022-08-10T04:35:26.948Z,22.89
2022-08-10T04:37:54.352Z,22.50
2022-08-10T04:40:28.233Z,22.28
2022-08-10T04:43:02.461Z,22.13
2022-08-10T04:45:48.263Z,22.17
2022-08-10T04:48:40.551Z,22.34
2022-08-10T04:51:17.342Z,22.29
2022-08-10T04:54:04.664Z,22.70
2022-08-10T04:56:35.649Z,22.95
2022-08-10T04:59:03.781Z,23.08
2022-08-10T05:02:22.236Z,22.91
2022-08-10T05:04:35.232Z,23.05
2022-08-10T05:07:10.547Z,22.89
2022-08-10T05:10:04.751Z,23.60
2022-08-10T05:12:30.102Z,23.17
2022-08-10T05:14:57.723Z,23.67
2022-08-10T05:17:25.110Z,24.28
2022-08-10T05:20:03.228Z,23.68
2022-08-10T05:22:44.974Z,24.50
2022-08-10T05:25:17.594Z,23.96
2022-08-10T05:27:45.682Z,24.08
2022-08-10T05:30:20.130Z,25.76
2022-08-10T05:32:57.679Z,26.79
2022-08-10T05:35:28.144Z,26.79
2022-08-10T05:38:11.818Z,28.39
2022-08-10T05:40:46.957Z,28.78
2022-08-10T05:43:17.667Z,28.98
2022-08-10T05:46:17.340Z,29.03
2022-08-10T05:48:54.508Z,29.13
2022-08-10T05:51:20.962Z,29.31
2022-08-10T05:54:03.407Z,28.28
2022-08-10T05:56:56.894Z,28.93
2022-08-10T06:00:34.657Z,29.13
2022-08-10T06:02:32.488Z,30.19
2022-08-10T06:05:06.614Z,27.95
2022-08-10T06:07:34.170Z,29.07
2022-08-10T06:10:01.980Z,30.08
2022-08-10T06:12:30.524Z,29.66
2022-08-10T06:15:05.559Z,30.07
2022-08-10T06:17:33.699Z,30.28
2022-08-10T06:20:01.444Z,29.42
2022-08-10T06:22:30.102Z,28.41
2022-08-10T06:25:32.003Z,28.60
2022-08-10T06:27:45.082Z,30.42
2022-08-10T06:30:20.401Z,32.45
2022-08-10T06:32:49.766Z,32.07
2022-08-10T06:35:17.779Z,29.58
2022-08-10T06:37:50.995Z,29.98
2022-08-10T06:40:20.226Z,28.98
2022-08-10T06:42:49.070Z,29.70
2022-08-10T06:45:23.366Z,31.07
2022-08-10T06:48:00.640Z,30.48
2022-08-10T06:50:58.715Z,29.29
2022-08-10T06:53:53.501Z,30.78
2022-08-10T06:56:36.668Z,31.15
2022-08-10T06:59:13.118Z,30.42
2022-08-10T07:01:52.242Z,29.46
2022-08-10T07:04:33.391Z,30.51
2022-08-10T07:07:03.937Z,32.13
2022-08-10T07:09:32.698Z,33.01
2022-08-10T07:12:08.369Z,32.85
2022-08-10T07:14:37.742Z,33.70
2022-08-10T07:17:05.702Z,31.93
2022-08-10T07:19:33.097Z,30.93
2022-08-10T07:22:00.721Z,30.51
2022-08-10T07:24:28.085Z,29.98
2022-08-10T07:26:55.580Z,30.99
2022-08-10T07:29:53.868Z,31.02
2022-08-10T07:32:15.510Z,33.77
2022-08-10T07:34:43.189Z,33.97
2022-08-10T07:37:10.555Z,34.42
2022-08-10T07:39:58.008Z,34.61
2022-08-10T07:42:26.256Z,33.28
2022-08-10T07:44:53.643Z,32.79
2022-08-10T07:47:52.306Z,32.46
2022-08-10T07:50:21.475Z,34.92
2022-08-10T07:52:48.895Z,34.93
2022-08-10T07:55:17.334Z,34.55
2022-08-10T07:57:45.013Z,33.96
2022-08-10T08:00:12.822Z,35.27
2022-08-10T08:02:51.710Z,35.05
2022-08-10T08:05:51.807Z,36.53
2022-08-10T08:08:08.449Z,36.07
2022-08-10T08:10:35.878Z,36.59
2022-08-10T08:13:03.334Z,35.05
2022-08-10T08:16:17.153Z,35.16
2022-08-10T08:18:24.847Z,37.60
2022-08-10T08:20:54.333Z,37.28
2022-08-10T08:24:06.068Z,35.76
2022-08-10T08:26:10.612Z,36.46
2022-08-10T08:28:38.657Z,37.72
2022-08-10T08:31:06.037Z,35.07
2022-08-10T08:33:41.618Z,33.88
2022-08-10T08:36:10.258Z,34.34
2022-08-10T08:38:37.930Z,34.07
2022-08-10T08:41:17.332Z,32.53
2022-08-10T08:44:15.517Z,32.28
2022-08-10T08:48:02.227Z,32.62
2022-08-10T08:50:07.635Z,33.10
2022-08-10T08:52:55.688Z,35.92
2022-08-10T08:56:05.078Z,38.28
2022-08-10T08:58:29.343Z,38.11
2022-08-10T09:01:22.894Z,33.09
2022-08-10T09:04:19.877Z,37.30
2022-08-10T09:08:01.187Z,36.35
2022-08-10T09:10:25.680Z,35.10
2022-08-10T09:12:57.786Z,36.89
2022-08-10T09:15:40.914Z,38.07
2022-08-10T09:18:17.969Z,37.00
2022-08-10T09:21:09.903Z,39.24
2022-08-10T09:24:05.556Z,38.97
2022-08-10T09:26:42.472Z,40.48
2022-08-10T09:29:13.492Z,39.83
2022-08-10T09:33:05.331Z,41.09
2022-08-10T09:36:22.449Z,39.99
2022-08-10T09:38:03.198Z,37.28
2022-08-10T09:41:00.266Z,34.06
2022-08-10T09:43:40.934Z,38.76
2022-08-10T09:46:20.925Z,37.64
2022-08-10T09:49:12.121Z,35.98
2022-08-10T09:52:02.010Z,38.43
2022-08-10T09:55:04.806Z,38.11
2022-08-10T09:58:11.558Z,37.02
2022-08-10T10:00:42.019Z,38.61
2022-08-10T10:03:17.297Z,37.38
2022-08-10T10:06:06.847Z,37.79
2022-08-10T10:08:43.125Z,37.28
2022-08-10T10:11:33.382Z,38.22
2022-08-10T10:14:16.510Z,37.64
2022-08-10T10:16:55.422Z,35.68
2022-08-10T10:19:49.326Z,34.78
2022-08-10T10:22:38.148Z,36.76
2022-08-10T10:25:19.931Z,37.36
2022-08-10T10:27:59.526Z,38.35
2022-08-10T10:30:28.357Z,38.05
2022-08-10T10:33:03.132Z,36.87
2022-08-10T10:35:41.639Z,39.65
2022-08-10T10:38:09.917Z,36.88
2022-08-10T10:41:13.299Z,37.69
2022-08-10T10:44:08.506Z,36.86
2022-08-10T10:47:09.493Z,37.25
2022-08-10T10:49:55.217Z,35.05
2022-08-10T10:52:32.272Z,33.58
2022-08-10T10:56:13.895Z,32.92
2022-08-10T10:58:43.630Z,32.00
2022-08-10T11:01:16.883Z,30.88
2022-08-10T11:03:47.234Z,28.88
2022-08-10T11:06:45.505Z,29.89
2022-08-10T11:10:03.131Z,29.25
2022-08-10T11:12:50.029Z,29.69
2022-08-10T11:15:26.504Z,28.60
2022-08-10T11:18:05.871Z,29.48
2022-08-10T11:20:51.707Z,29.15
2022-08-10T11:23:33.174Z,28.94
2022-08-10T11:26:08.841Z,28.49
2022-08-10T11:28:46.440Z,28.32
2022-08-10T11:31:22.388Z,28.14
2022-08-10T11:34:47.560Z,29.10
2022-08-10T11:37:21.478Z,29.03
2022-08-10T11:40:15.077Z,28.60
2022-08-10T11:43:01.210Z,28.77
2022-08-10T11:45:36.718Z,29.12
2022-08-10T11:48:53.462Z,29.11
2022-08-10T11:51:25.461Z,28.94
2022-08-10T11:54:05.489Z,28.40
2022-08-10T11:56:48.818Z,28.02
2022-08-10T11:59:35.771Z,28.69
2022-08-10T12:02:04.732Z,28.06
2022-08-10T12:04:33.074Z,28.71
2022-08-10T12:07:00.526Z,28.46
2022-08-10T12:10:06.307Z,28.68
2022-08-10T12:12:16.578Z,28.73
2022-08-10T12:14:48.686Z,28.89
2022-08-10T12:17:18.834Z,28.98
2022-08-10T12:20:02.670Z,28.81
2022-08-10T12:22:49.463Z,28.48
2022-08-10T12:25:56.927Z,28.93
2022-08-10T12:28:18.365Z,29.10
2022-08-10T12:30:56.634Z,28.44
2022-08-10T12:33:31.851Z,29.14
2022-08-10T12:36:28.873Z,29.19
2022-08-10T12:38:59.344Z,28.58
2022-08-10T12:41:45.096Z,28.24
2022-08-10T12:44:22.266Z,28.74
2022-08-10T12:47:15.767Z,29.25
2022-08-10T12:50:31.462Z,28.99
2022-08-10T12:52:58.122Z,28.79
2022-08-10T12:55:26.543Z,29.34
2022-08-10T12:57:55.284Z,28.46
2022-08-10T13:00:33.520Z,28.54
2022-08-10T13:03:01.934Z,28.38
2022-08-10T13:05:29.582Z,28.62
2022-08-10T13:08:35.813Z,29.08
2022-08-10T13:11:04.307Z,28.82
2022-08-10T13:13:36.667Z,28.85
2022-08-10T13:16:04.307Z,28.97
2022-08-10T13:18:41.803Z,28.46
2022-08-10T13:21:19.897Z,28.50
2022-08-10T13:24:20.291Z,28.37
2022-08-10T13:27:24.636Z,28.63
2022-08-10T13:29:43.317Z,28.89
2022-08-10T13:32:11.318Z,29.09
2022-08-10T13:34:45.087Z,29.07
2022-08-10T13:37:17.339Z,28.65
2022-08-10T13:39:57.737Z,29.43
2022-08-10T13:42:32.354Z,29.34
2022-08-10T13:45:17.654Z,29.42
2022-08-10T13:47:49.226Z,29.27
2022-08-10T13:50:33.421Z,29.20
2022-08-10T13:53:03.854Z,29.24
2022-08-10T13:55:48.682Z,28.82
2022-08-10T13:58:25.435Z,29.19
2022-08-10T14:00:53.589Z,29.76
2022-08-10T14:03:21.310Z,29.25
2022-08-10T14:05:53.207Z,28.20
2022-08-10T14:08:25.652Z,28.67
2022-08-10T14:11:09.044Z,28.77
2022-08-10T14:13:56.680Z,28.45
2022-08-10T14:16:24.478Z,28.65
2022-08-10T14:18:53.464Z,28.79
2022-08-10T14:21:21.094Z,29.01
2022-08-10T14:23:53.284Z,28.69
2022-08-10T14:26:26.717Z,28.74
2022-08-10T14:28:57.507Z,28.83
2022-08-10T14:31:30.268Z,29.10
2022-08-10T14:33:58.009Z,28.86
2022-08-10T14:36:37.350Z,29.12
2022-08-10T14:39:06.162Z,29.41
2022-08-10T14:42:03.224Z,28.35
2022-08-10T14:44:23.223Z,28.33
2022-08-10T14:46:53.995Z,28.84
2022-08-10T14:49:26.153Z,28.89
2022-08-10T14:51:59.729Z,28.78
2022-08-10T14:54:29.701Z,28.82
2022-08-10T14:57:10.576Z,28.49
2022-08-10T15:00:23.286Z,28.75
2022-08-10T15:02:38.236Z,29.28
2022-08-10T15:05:09.679Z,28.73
2022-08-10T15:07:37.903Z,29.07
2022-08-10T15:10:08.090Z,28.52
2022-08-10T15:12:39.163Z,28.73
2022-08-10T15:15:09.528Z,28.98
2022-08-10T15:17:43.161Z,29.09
2022-08-10T15:20:21.053Z,28.80
2022-08-10T15:22:56.240Z,28.22
2022-08-10T15:25:24.831Z,27.98
2022-08-10T15:28:04.291Z,28.49
2022-08-10T15:30:39.661Z,28.21
2022-08-10T15:34:02.556Z,28.13
2022-08-10T15:36:37.389Z,28.48
2022-08-10T15:40:24.116Z,28.43
2022-08-10T15:42:19.987Z,28.67
2022-08-10T15:44:49.946Z,29.21
2022-08-10T15:47:24.554Z,29.21
2022-08-10T15:49:58.834Z,29.04
2022-08-10T15:52:39.266Z,29.01
2022-08-10T15:55:44.403Z,29.14
2022-08-10T15:58:12.454Z,29.18
2022-08-10T16:00:44.266Z,28.44
2022-08-10T16:03:44.215Z,28.47
2022-08-10T16:06:29.777Z,28.19
2022-08-10T16:10:24.331Z,28.25
2022-08-10T16:12:29.989Z,28.50
2022-08-10T16:15:00.345Z,28.01
2022-08-10T16:17:28.768Z,28.24
2022-08-10T16:19:57.617Z,28.23
2022-08-10T16:22:37.192Z,28.33
2022-08-10T16:25:13.898Z,27.83
2022-08-10T16:27:42.156Z,28.23
2022-08-10T16:30:09.747Z,28.11
2022-08-10T16:32:37.192Z,28.58
2022-08-10T16:35:08.846Z,28.55
2022-08-10T16:37:57.185Z,28.66
2022-08-10T16:40:29.694Z,28.79
2022-08-10T16:42:58.113Z,28.35
2022-08-10T16:45:36.988Z,28.35
2022-08-10T16:48:04.797Z,28.10
2022-08-10T16:50:37.612Z,27.86
2022-08-10T16:53:06.940Z,28.19
2022-08-10T16:55:48.886Z,28.16
2022-08-10T16:58:20.640Z,28.15
2022-08-10T17:00:48.323Z,28.23
2022-08-10T17:03:22.710Z,27.70
2022-08-10T17:06:10.901Z,28.40
2022-08-10T17:08:48.050Z,28.60
2022-08-10T17:11:21.069Z,28.48
2022-08-10T17:13:48.550Z,27.75
2022-08-10T17:16:17.088Z,27.96
2022-08-10T17:18:46.933Z,27.86
2022-08-10T17:21:19.602Z,27.43
2022-08-10T17:23:52.626Z,27.44
2022-08-10T17:26:36.125Z,27.71
2022-08-10T17:29:53.279Z,27.55
2022-08-10T17:32:06.627Z,27.46
2022-08-10T17:34:38.731Z,27.02
2022-08-10T17:37:11.167Z,27.34
2022-08-10T17:39:41.394Z,27.66
2022-08-10T17:42:08.895Z,27.88
2022-08-10T17:44:37.440Z,27.74
2022-08-10T17:47:10.564Z,27.79
2022-08-10T17:49:40.181Z,28.07
2022-08-10T17:52:08.806Z,28.29
2022-08-10T17:54:38.730Z,28.21
2022-08-10T17:57:11.350Z,28.00
2022-08-10T17:59:39.032Z,28.04
2022-08-10T18:02:11.990Z,27.86
2022-08-10T18:04:42.261Z,27.89
2022-08-10T18:07:10.495Z,27.75
2022-08-10T18:09:43.710Z,27.86
2022-08-10T18:12:31.986Z,27.64
2022-08-10T18:15:05.849Z,27.41
2022-08-10T18:17:39.294Z,27.54
2022-08-10T18:20:07.905Z,27.47
2022-08-10T18:22:44.134Z,27.41
2022-08-10T18:25:24.915Z,27.23
2022-08-10T18:28:03.833Z,27.03
2022-08-10T18:30:36.346Z,27.19
2022-08-10T18:33:04.870Z,27.26
2022-08-10T18:35:34.565Z,27.10
2022-08-10T18:38:02.719Z,27.01
2022-08-10T18:40:35.506Z,26.89
2022-08-10T18:44:02.914Z,26.67
2022-08-10T18:45:56.982Z,26.68
2022-08-10T18:48:33.242Z,26.78
2022-08-10T18:51:05.440Z,26.88
2022-08-10T18:53:36.327Z,26.69
2022-08-10T18:56:26.673Z,26.40
2022-08-10T18:59:21.970Z,26.67
2022-08-10T19:02:11.544Z,26.74
2022-08-10T19:04:49.161Z,26.86
2022-08-10T19:07:45.693Z,26.72
2022-08-10T19:10:44.242Z,26.64
2022-08-10T19:13:33.437Z,26.75
2022-08-10T19:16:03.810Z,26.62
2022-08-10T19:18:51.439Z,26.54
2022-08-10T19:21:31.688Z,26.76
2022-08-10T19:24:06.115Z,26.31
2022-08-10T19:26:54.828Z,26.49
2022-08-10T19:30:05.085Z,26.67
2022-08-10T19:32:45.360Z,26.39
2022-08-10T19:35:16.152Z,26.24
2022-08-10T19:38:00.657Z,26.28
2022-08-10T19:40:48.740Z,26.13
2022-08-10T19:43:59.539Z,26.20
2022-08-10T19:46:18.227Z,26.06
2022-08-10T19:49:08.374Z,26.05
2022-08-10T19:51:48.902Z,26.17
2022-08-10T19:54:20.611Z,26.03
2022-08-10T19:57:13.918Z,25.94
2022-08-10T20:00:16.724Z,26.10
2022-08-10T20:03:12.217Z,25.76
2022-08-10T20:06:15.353Z,25.80
2022-08-10T20:08:46.704Z,25.78
2022-08-10T20:11:44.558Z,25.84
2022-08-10T20:14:21.902Z,25.92
2022-08-10T20:16:51.256Z,25.52
2022-08-10T20:19:53.888Z,25.67
2022-08-10T20:22:15.799Z,25.74
2022-08-10T20:24:47.784Z,25.78
2022-08-10T20:27:58.925Z,25.64
2022-08-10T20:30:14.193Z,25.87
2022-08-10T20:32:49.465Z,25.68
2022-08-10T20:35:26.887Z,25.11
2022-08-10T20:38:09.154Z,25.59
2022-08-10T20:40:46.172Z,25.80
2022-08-10T20:43:22.818Z,25.86
2022-08-10T20:46:08.980Z,25.82
2022-08-10T20:48:40.601Z,25.69
2022-08-10T20:51:15.582Z,25.34
2022-08-10T20:53:46.735Z,25.48
2022-08-10T20:56:28.319Z,25.54
2022-08-10T20:59:09.129Z,25.83
2022-08-10T21:02:06.868Z,25.66
2022-08-10T21:04:57.770Z,25.04
2022-08-10T21:08:01.166Z,25.20
2022-08-10T21:11:18.711Z,24.71
2022-08-10T21:14:11.213Z,24.91
2022-08-10T21:17:05.455Z,25.31
2022-08-10T21:19:55.664Z,24.99
2022-08-10T21:22:47.087Z,25.29
2022-08-10T21:25:17.747Z,25.44
2022-08-10T21:27:49.484Z,25.59
2022-08-10T21:30:54.408Z,25.04
2022-08-10T21:34:19.537Z,25.19
2022-08-10T21:37:13.409Z,24.90
2022-08-10T21:39:48.115Z,24.84
2022-08-10T21:43:22.766Z,25.23
2022-08-10T21:46:28.485Z,24.58
2022-08-10T21:49:22.826Z,24.67
2022-08-10T21:52:33.311Z,24.88
2022-08-10T21:55:24.106Z,25.01
2022-08-10T21:58:37.287Z,25.05
2022-08-10T22:01:40.198Z,24.32
2022-08-10T22:04:26.555Z,24.53
2022-08-10T22:07:12.622Z,24.61
2022-08-10T22:10:03.911Z,24.73
2022-08-10T22:12:55.036Z,25.00
2022-08-10T22:16:05.563Z,25.04
2022-08-10T22:19:02.082Z,24.84
2022-08-10T22:22:08.247Z,24.54
2022-08-10T22:25:16.462Z,24.41
2022-08-10T22:28:03.584Z,24.88
2022-08-10T22:31:22.766Z,24.84
2022-08-10T22:34:30.219Z,24.76
2022-08-10T22:37:58.237Z,24.77
2022-08-10T22:40:54.339Z,24.76
2022-08-10T22:43:45.895Z,24.92
2022-08-10T22:46:48.252Z,24.69
2022-08-10T22:49:24.598Z,24.52
2022-08-10T22:51:52.063Z,24.47
2022-08-10T22:54:56.134Z,24.71
2022-08-10T22:57:42.574Z,24.43
2022-08-10T23:00:20.400Z,24.34
2022-08-10T23:03:10.480Z,24.04
2022-08-10T23:05:48.507Z,24.36
2022-08-10T23:08:32.716Z,24.13
2022-08-10T23:11:05.060Z,24.00
2022-08-10T23:13:36.467Z,23.76
2022-08-10T23:16:24.148Z,23.93
2022-08-10T23:19:11.499Z,23.72
2022-08-10T23:22:10.368Z,24.11
2022-08-10T23:24:53.716Z,24.11
2022-08-10T23:27:38.457Z,24.17
2022-08-10T23:30:17.982Z,23.74
2022-08-10T23:32:49.903Z,24.10
2022-08-10T23:36:29.877Z,23.83
2022-08-10T23:38:06.845Z,23.94
2022-08-10T23:40:34.540Z,23.72
2022-08-10T23:43:01.904Z,23.85
2022-08-10T23:45:52.267Z,23.70
2022-08-10T23:48:18.963Z,23.81
2022-08-10T23:50:58.204Z,24.04
2022-08-10T23:53:35.414Z,23.39
2022-08-10T23:56:22.918Z,22.94
2022-08-10T23:58:53.725Z,23.50
